KNTD/NTD METAR and TAF weather

Enter ICAO airport designator
Station Type Date Time Source
KNTD METAR 2021/09/24 00:52 UTC NOAA

KNTD 240052Z 28007KT 10SM FEW010 BKN260 17/12 A2988 RMK AO2 SLP120 T01670122 VISNO N $


Station Type Date Time Source
KNTD Decoded METAR 2021/09/24 00:52 UTC NOAA

NAWCWPNS POINT MUGU, CA, CA, United States (KNTD) 34-07N 119-07W 2M
Sep 23, 2021 - 08:52 PM EDT / 2021.09.24 0052 UTC
Wind: from the W (280 degrees) at 8 MPH (7 KT):0
Visibility: 10 mile(s):0
Sky conditions: mostly cloudy
Temperature: 62.1 F (16.7 C)
Dew Point: 54.0 F (12.2 C)
Relative Humidity: 74%
Pressure (altimeter): 29.88 in. Hg (1011 hPa)
ob: KNTD 240052Z 28007KT 10SM FEW010 BKN260 17/12 A2988 RMK AO2 SLP120 T01670122 VISNO N
cycle: 1

Station Type Date Time Source
KNTD TAF 2021/09/23 23:06 UTC NOAA

TAF KNTD 2323/2423 28009KT 9999 FEW010 BKN260 QNH2983INS
FM240300 VRB05KT 9999 FEW009 BKN260 QNH2983INS
TEMPO 2403/2409 31007KT BKN009
FM240900 VRB04KT 9999 OVC008 QNH2986INS
FM241800 27008KT 9000 HZ FEW005 FEW060 BKN200 QNH2985INS AUTOMATED SENSOR METWATCH 2406 TIL 2413 T14/2413Z T22/2422Z FS30101

Example: see airport list